sensor_id;sensor_type;location;lat;lon;timestamp;P1;durP1;ratioP1;P2;durP2;ratioP2
8102;SDS011;4094;49.948;11.574;2023-06-10T00:00:48;7.60;;;7.03;;
8102;SDS011;4094;49.948;11.574;2023-06-10T00:03:19;8.07;;;7.40;;
8102;SDS011;4094;49.948;11.574;2023-06-10T00:05:51;8.20;;;7.60;;
8102;SDS011;4094;49.948;11.574;2023-06-10T00:08:20;7.10;;;6.60;;
8102;SDS011;4094;49.948;11.574;2023-06-10T00:10:49;8.60;;;7.87;;
8102;SDS011;4094;49.948;11.574;2023-06-10T00:13:18;7.97;;;7.37;;
8102;SDS011;4094;49.948;11.574;2023-06-10T00:15:47;8.70;;;8.00;;
8102;SDS011;4094;49.948;11.574;2023-06-10T00:18:16;7.57;;;6.97;;
8102;SDS011;4094;49.948;11.574;2023-06-10T00:20:47;8.27;;;7.63;;
8102;SDS011;4094;49.948;11.574;2023-06-10T00:23:20;8.27;;;7.60;;
8102;SDS011;4094;49.948;11.574;2023-06-10T00:25:52;7.80;;;7.30;;
8102;SDS011;4094;49.948;11.574;2023-06-10T00:28:21;7.70;;;7.10;;
8102;SDS011;4094;49.948;11.574;2023-06-10T00:30:50;8.10;;;7.60;;
8102;SDS011;4094;49.948;11.574;2023-06-10T00:33:20;7.93;;;7.43;;
8102;SDS011;4094;49.948;11.574;2023-06-10T00:35:50;8.20;;;7.60;;
8102;SDS011;4094;49.948;11.574;2023-06-10T00:38:19;8.63;;;7.93;;
8102;SDS011;4094;49.948;11.574;2023-06-10T00:40:48;8.30;;;7.70;;
8102;SDS011;4094;49.948;11.574;2023-06-10T00:43:17;8.83;;;8.13;;
8102;SDS011;4094;49.948;11.574;2023-06-10T00:45:47;8.70;;;7.73;;
8102;SDS011;4094;49.948;11.574;2023-06-10T00:48:16;8.63;;;7.93;;
8102;SDS011;4094;49.948;11.574;2023-06-10T00:50:45;7.83;;;7.23;;
8102;SDS011;4094;49.948;11.574;2023-06-10T00:53:17;8.63;;;8.03;;
8102;SDS011;4094;49.948;11.574;2023-06-10T00:55:48;8.57;;;7.87;;
8102;SDS011;4094;49.948;11.574;2023-06-10T00:58:17;8.63;;;7.93;;
8102;SDS011;4094;49.948;11.574;2023-06-10T01:00:47;8.50;;;7.77;;
8102;SDS011;4094;49.948;11.574;2023-06-10T01:03:17;8.17;;;7.57;;
8102;SDS011;4094;49.948;11.574;2023-06-10T01:05:48;9.07;;;8.47;;
8102;SDS011;4094;49.948;11.574;2023-06-10T01:08:25;8.20;;;7.50;;
8102;SDS011;4094;49.948;11.574;2023-06-10T01:11:03;9.53;;;8.63;;
8102;SDS011;4094;49.948;11.574;2023-06-10T01:13:35;8.43;;;7.63;;
8102;SDS011;4094;49.948;11.574;2023-06-10T01:16:06;8.70;;;8.00;;
8102;SDS011;4094;49.948;11.574;2023-06-10T01:18:40;8.13;;;7.50;;
8102;SDS011;4094;49.948;11.574;2023-06-10T01:21:13;9.00;;;8.07;;
8102;SDS011;4094;49.948;11.574;2023-06-10T01:23:45;7.93;;;7.43;;
8102;SDS011;4094;49.948;11.574;2023-06-10T01:26:14;8.57;;;7.77;;
8102;SDS011;4094;49.948;11.574;2023-06-10T01:28:45;8.30;;;7.60;;
8102;SDS011;4094;49.948;11.574;2023-06-10T01:31:23;8.00;;;7.37;;
8102;SDS011;4094;49.948;11.574;2023-06-10T01:34:01;9.03;;;7.83;;
8102;SDS011;4094;49.948;11.574;2023-06-10T01:36:36;8.43;;;7.73;;
8102;SDS011;4094;49.948;11.574;2023-06-10T01:39:08;8.23;;;7.53;;
8102;SDS011;4094;49.948;11.574;2023-06-10T01:41:41;8.20;;;7.60;;
8102;SDS011;4094;49.948;11.574;2023-06-10T01:44:11;8.50;;;7.80;;
8102;SDS011;4094;49.948;11.574;2023-06-10T01:46:40;8.87;;;8.10;;
8102;SDS011;4094;49.948;11.574;2023-06-10T01:49:11;8.60;;;7.73;;
8102;SDS011;4094;49.948;11.574;2023-06-10T01:51:44;9.33;;;8.40;;
8102;SDS011;4094;49.948;11.574;2023-06-10T01:54:13;9.10;;;8.33;;
8102;SDS011;4094;49.948;11.574;2023-06-10T01:56:42;9.53;;;8.73;;
8102;SDS011;4094;49.948;11.574;2023-06-10T01:59:11;8.53;;;7.83;;
8102;SDS011;4094;49.948;11.574;2023-06-10T02:01:40;9.13;;;8.43;;
8102;SDS011;4094;49.948;11.574;2023-06-10T02:04:10;9.23;;;8.53;;
8102;SDS011;4094;49.948;11.574;2023-06-10T02:06:39;9.07;;;8.33;;
8102;SDS011;4094;49.948;11.574;2023-06-10T02:09:10;9.70;;;8.77;;
8102;SDS011;4094;49.948;11.574;2023-06-10T02:11:39;8.87;;;8.20;;
8102;SDS011;4094;49.948;11.574;2023-06-10T02:14:09;8.93;;;8.13;;
8102;SDS011;4094;49.948;11.574;2023-06-10T02:16:38;9.07;;;8.37;;
8102;SDS011;4094;49.948;11.574;2023-06-10T02:19:07;9.33;;;8.53;;
8102;SDS011;4094;49.948;11.574;2023-06-10T02:21:36;9.17;;;8.40;;
8102;SDS011;4094;49.948;11.574;2023-06-10T02:24:05;9.07;;;8.37;;
8102;SDS011;4094;49.948;11.574;2023-06-10T02:26:37;8.87;;;7.97;;
8102;SDS011;4094;49.948;11.574;2023-06-10T02:29:08;8.07;;;7.47;;
8102;SDS011;4094;49.948;11.574;2023-06-10T02:31:37;8.53;;;7.80;;
8102;SDS011;4094;49.948;11.574;2023-06-10T02:34:07;8.63;;;8.03;;
8102;SDS011;4094;49.948;11.574;2023-06-10T02:36:36;8.90;;;8.20;;
8102;SDS011;4094;49.948;11.574;2023-06-10T02:39:05;8.97;;;8.27;;
8102;SDS011;4094;49.948;11.574;2023-06-10T02:41:35;9.10;;;8.50;;
8102;SDS011;4094;49.948;11.574;2023-06-10T02:44:06;8.40;;;7.80;;
8102;SDS011;4094;49.948;11.574;2023-06-10T02:46:35;8.93;;;8.23;;
8102;SDS011;4094;49.948;11.574;2023-06-10T02:49:05;8.77;;;8.07;;
8102;SDS011;4094;49.948;11.574;2023-06-10T02:51:35;9.00;;;8.40;;
8102;SDS011;4094;49.948;11.574;2023-06-10T02:54:05;9.03;;;8.33;;
8102;SDS011;4094;49.948;11.574;2023-06-10T02:56:34;8.43;;;7.83;;
8102;SDS011;4094;49.948;11.574;2023-06-10T02:59:09;9.13;;;8.47;;
8102;SDS011;4094;49.948;11.574;2023-06-10T03:01:38;8.47;;;7.87;;
8102;SDS011;4094;49.948;11.574;2023-06-10T03:04:10;9.00;;;8.30;;
8102;SDS011;4094;49.948;11.574;2023-06-10T03:06:46;9.63;;;8.80;;
8102;SDS011;4094;49.948;11.574;2023-06-10T03:09:24;8.93;;;8.20;;
8102;SDS011;4094;49.948;11.574;2023-06-10T03:11:57;9.57;;;8.77;;
8102;SDS011;4094;49.948;11.574;2023-06-10T03:14:27;9.13;;;8.53;;
8102;SDS011;4094;49.948;11.574;2023-06-10T03:16:57;9.67;;;8.97;;
8102;SDS011;4094;49.948;11.574;2023-06-10T03:19:27;9.40;;;8.70;;
8102;SDS011;4094;49.948;11.574;2023-06-10T03:21:58;9.80;;;9.10;;
8102;SDS011;4094;49.948;11.574;2023-06-10T03:24:40;9.53;;;8.93;;
8102;SDS011;4094;49.948;11.574;2023-06-10T03:27:11;8.83;;;8.23;;
8102;SDS011;4094;49.948;11.574;2023-06-10T03:29:44;9.90;;;9.10;;
8102;SDS011;4094;49.948;11.574;2023-06-10T03:32:13;9.67;;;8.87;;
8102;SDS011;4094;49.948;11.574;2023-06-10T03:34:43;9.63;;;8.67;;
8102;SDS011;4094;49.948;11.574;2023-06-10T03:37:15;9.57;;;8.80;;
8102;SDS011;4094;49.948;11.574;2023-06-10T03:39:48;10.17;;;9.27;;
8102;SDS011;4094;49.948;11.574;2023-06-10T03:42:17;9.87;;;8.87;;
8102;SDS011;4094;49.948;11.574;2023-06-10T03:44:48;9.83;;;9.13;;
8102;SDS011;4094;49.948;11.574;2023-06-10T03:47:17;10.20;;;9.47;;
8102;SDS011;4094;49.948;11.574;2023-06-10T03:49:46;9.30;;;8.60;;
8102;SDS011;4094;49.948;11.574;2023-06-10T03:54:46;9.87;;;9.10;;
8102;SDS011;4094;49.948;11.574;2023-06-10T03:57:15;9.63;;;8.93;;
8102;SDS011;4094;49.948;11.574;2023-06-10T03:59:44;9.87;;;9.07;;
8102;SDS011;4094;49.948;11.574;2023-06-10T04:02:15;10.13;;;9.27;;
8102;SDS011;4094;49.948;11.574;2023-06-10T04:04:44;9.83;;;9.07;;
8102;SDS011;4094;49.948;11.574;2023-06-10T04:07:14;10.67;;;9.80;;
8102;SDS011;4094;49.948;11.574;2023-06-10T04:09:43;11.00;;;9.90;;
8102;SDS011;4094;49.948;11.574;2023-06-10T04:12:12;9.93;;;9.13;;
8102;SDS011;4094;49.948;11.574;2023-06-10T04:14:41;10.43;;;9.63;;
8102;SDS011;4094;49.948;11.574;2023-06-10T04:17:12;10.03;;;9.23;;
8102;SDS011;4094;49.948;11.574;2023-06-10T04:19:42;9.70;;;9.00;;
8102;SDS011;4094;49.948;11.574;2023-06-10T04:22:12;9.57;;;8.83;;
8102;SDS011;4094;49.948;11.574;2023-06-10T04:24:41;10.27;;;9.47;;
8102;SDS011;4094;49.948;11.574;2023-06-10T04:27:10;9.77;;;8.90;;
8102;SDS011;4094;49.948;11.574;2023-06-10T04:29:40;10.67;;;9.60;;
8102;SDS011;4094;49.948;11.574;2023-06-10T04:32:09;10.47;;;9.77;;
8102;SDS011;4094;49.948;11.574;2023-06-10T04:34:38;9.93;;;9.23;;
8102;SDS011;4094;49.948;11.574;2023-06-10T04:37:09;10.97;;;10.17;;
8102;SDS011;4094;49.948;11.574;2023-06-10T04:39:38;10.00;;;9.30;;
8102;SDS011;4094;49.948;11.574;2023-06-10T04:42:08;10.80;;;10.00;;
8102;SDS011;4094;49.948;11.574;2023-06-10T04:44:38;10.87;;;9.77;;
8102;SDS011;4094;49.948;11.574;2023-06-10T04:47:08;10.50;;;9.70;;
8102;SDS011;4094;49.948;11.574;2023-06-10T04:49:38;11.03;;;10.07;;
8102;SDS011;4094;49.948;11.574;2023-06-10T04:52:08;10.40;;;9.60;;
8102;SDS011;4094;49.948;11.574;2023-06-10T04:54:40;10.83;;;10.03;;
8102;SDS011;4094;49.948;11.574;2023-06-10T04:57:09;10.13;;;9.43;;
8102;SDS011;4094;49.948;11.574;2023-06-10T04:59:39;10.20;;;9.33;;
8102;SDS011;4094;49.948;11.574;2023-06-10T05:02:08;10.50;;;9.60;;
8102;SDS011;4094;49.948;11.574;2023-06-10T05:04:37;11.00;;;10.10;;
8102;SDS011;4094;49.948;11.574;2023-06-10T05:07:06;11.10;;;10.20;;
8102;SDS011;4094;49.948;11.574;2023-06-10T05:09:36;10.97;;;10.17;;
8102;SDS011;4094;49.948;11.574;2023-06-10T05:12:06;9.93;;;9.23;;
8102;SDS011;4094;49.948;11.574;2023-06-10T05:14:36;10.97;;;10.17;;
8102;SDS011;4094;49.948;11.574;2023-06-10T05:17:05;10.47;;;9.47;;
8102;SDS011;4094;49.948;11.574;2023-06-10T05:19:34;11.03;;;10.13;;
8102;SDS011;4094;49.948;11.574;2023-06-10T05:22:04;10.20;;;9.40;;
8102;SDS011;4094;49.948;11.574;2023-06-10T05:24:33;10.60;;;9.70;;
8102;SDS011;4094;49.948;11.574;2023-06-10T05:27:04;10.67;;;9.87;;
8102;SDS011;4094;49.948;11.574;2023-06-10T05:29:34;10.47;;;9.67;;
8102;SDS011;4094;49.948;11.574;2023-06-10T05:32:03;10.80;;;10.00;;
8102;SDS011;4094;49.948;11.574;2023-06-10T05:34:33;10.83;;;10.00;;
8102;SDS011;4094;49.948;11.574;2023-06-10T05:37:02;10.73;;;9.83;;
8102;SDS011;4094;49.948;11.574;2023-06-10T05:39:32;10.40;;;9.70;;
8102;SDS011;4094;49.948;11.574;2023-06-10T05:42:07;10.20;;;9.47;;
8102;SDS011;4094;49.948;11.574;2023-06-10T05:44:37;10.73;;;9.93;;
8102;SDS011;4094;49.948;11.574;2023-06-10T05:47:06;10.07;;;9.37;;
8102;SDS011;4094;49.948;11.574;2023-06-10T05:49:35;9.13;;;8.43;;
8102;SDS011;4094;49.948;11.574;2023-06-10T05:52:05;10.27;;;9.30;;
8102;SDS011;4094;49.948;11.574;2023-06-10T05:54:34;10.43;;;9.60;;
8102;SDS011;4094;49.948;11.574;2023-06-10T05:57:03;10.40;;;9.50;;
8102;SDS011;4094;49.948;11.574;2023-06-10T05:59:34;10.33;;;9.53;;
8102;SDS011;4094;49.948;11.574;2023-06-10T06:02:04;9.47;;;8.77;;
8102;SDS011;4094;49.948;11.574;2023-06-10T06:04:34;9.50;;;8.60;;
8102;SDS011;4094;49.948;11.574;2023-06-10T06:07:03;10.53;;;8.90;;
8102;SDS011;4094;49.948;11.574;2023-06-10T06:09:33;9.70;;;8.90;;
8102;SDS011;4094;49.948;11.574;2023-06-10T06:12:02;9.57;;;8.87;;
8102;SDS011;4094;49.948;11.574;2023-06-10T06:14:36;9.03;;;8.33;;
8102;SDS011;4094;49.948;11.574;2023-06-10T06:17:06;9.70;;;8.80;;
8102;SDS011;4094;49.948;11.574;2023-06-10T06:19:36;9.57;;;8.57;;
8102;SDS011;4094;49.948;11.574;2023-06-10T06:22:05;8.87;;;8.17;;
8102;SDS011;4094;49.948;11.574;2023-06-10T06:24:34;9.23;;;8.43;;
8102;SDS011;4094;49.948;11.574;2023-06-10T06:27:03;9.80;;;9.00;;
8102;SDS011;4094;49.948;11.574;2023-06-10T06:29:35;10.50;;;8.77;;
8102;SDS011;4094;49.948;11.574;2023-06-10T06:32:04;9.07;;;8.27;;
8102;SDS011;4094;49.948;11.574;2023-06-10T06:34:34;9.97;;;9.07;;
8102;SDS011;4094;49.948;11.574;2023-06-10T06:37:03;9.70;;;8.80;;
8102;SDS011;4094;49.948;11.574;2023-06-10T06:39:35;9.97;;;8.93;;
8102;SDS011;4094;49.948;11.574;2023-06-10T06:42:04;9.27;;;8.57;;
8102;SDS011;4094;49.948;11.574;2023-06-10T06:44:54;8.50;;;7.90;;
8102;SDS011;4094;49.948;11.574;2023-06-10T06:47:23;9.43;;;8.70;;
8102;SDS011;4094;49.948;11.574;2023-06-10T06:49:53;9.23;;;8.43;;
8102;SDS011;4094;49.948;11.574;2023-06-10T06:52:23;9.07;;;8.33;;
8102;SDS011;4094;49.948;11.574;2023-06-10T06:54:52;9.50;;;8.70;;
8102;SDS011;4094;49.948;11.574;2023-06-10T06:57:21;8.90;;;8.10;;
8102;SDS011;4094;49.948;11.574;2023-06-10T06:59:50;8.93;;;8.23;;
8102;SDS011;4094;49.948;11.574;2023-06-10T07:02:21;9.17;;;8.47;;
8102;SDS011;4094;49.948;11.574;2023-06-10T07:04:50;8.47;;;7.80;;
8102;SDS011;4094;49.948;11.574;2023-06-10T07:07:22;8.80;;;7.90;;
8102;SDS011;4094;49.948;11.574;2023-06-10T07:09:52;9.27;;;8.57;;
8102;SDS011;4094;49.948;11.574;2023-06-10T07:12:21;8.60;;;7.90;;
8102;SDS011;4094;49.948;11.574;2023-06-10T07:14:51;8.30;;;7.67;;
8102;SDS011;4094;49.948;11.574;2023-06-10T07:17:21;8.13;;;7.53;;
8102;SDS011;4094;49.948;11.574;2023-06-10T07:19:50;7.60;;;6.90;;
8102;SDS011;4094;49.948;11.574;2023-06-10T07:22:20;8.70;;;7.80;;
8102;SDS011;4094;49.948;11.574;2023-06-10T07:24:49;8.33;;;7.50;;
8102;SDS011;4094;49.948;11.574;2023-06-10T07:27:19;7.70;;;7.10;;
8102;SDS011;4094;49.948;11.574;2023-06-10T07:29:48;7.73;;;7.03;;
8102;SDS011;4094;49.948;11.574;2023-06-10T07:32:18;8.60;;;7.90;;
8102;SDS011;4094;49.948;11.574;2023-06-10T07:34:51;7.73;;;7.03;;
8102;SDS011;4094;49.948;11.574;2023-06-10T07:37:23;7.47;;;6.87;;
8102;SDS011;4094;49.948;11.574;2023-06-10T07:39:53;6.93;;;6.20;;
8102;SDS011;4094;49.948;11.574;2023-06-10T07:42:22;7.73;;;7.13;;
8102;SDS011;4094;49.948;11.574;2023-06-10T07:44:51;8.40;;;7.60;;
8102;SDS011;4094;49.948;11.574;2023-06-10T07:47:21;7.67;;;6.97;;
8102;SDS011;4094;49.948;11.574;2023-06-10T07:49:52;7.40;;;6.80;;
8102;SDS011;4094;49.948;11.574;2023-06-10T07:52:21;6.33;;;5.77;;
8102;SDS011;4094;49.948;11.574;2023-06-10T07:54:50;7.67;;;6.90;;
8102;SDS011;4094;49.948;11.574;2023-06-10T07:57:19;6.90;;;6.40;;
8102;SDS011;4094;49.948;11.574;2023-06-10T07:59:49;5.83;;;5.33;;
8102;SDS011;4094;49.948;11.574;2023-06-10T08:02:18;5.27;;;4.77;;
8102;SDS011;4094;49.948;11.574;2023-06-10T08:04:52;5.50;;;4.30;;
8102;SDS011;4094;49.948;11.574;2023-06-10T08:07:21;4.07;;;3.77;;
8102;SDS011;4094;49.948;11.574;2023-06-10T08:09:51;4.67;;;4.27;;
8102;SDS011;4094;49.948;11.574;2023-06-10T08:12:20;4.37;;;3.97;;
8102;SDS011;4094;49.948;11.574;2023-06-10T08:14:49;3.93;;;3.63;;
8102;SDS011;4094;49.948;11.574;2023-06-10T08:17:18;4.23;;;3.93;;
8102;SDS011;4094;49.948;11.574;2023-06-10T08:19:47;4.20;;;3.80;;
8102;SDS011;4094;49.948;11.574;2023-06-10T08:22:18;3.97;;;3.67;;
8102;SDS011;4094;49.948;11.574;2023-06-10T08:24:47;3.90;;;3.60;;
8102;SDS011;4094;49.948;11.574;2023-06-10T08:27:17;4.00;;;3.60;;
8102;SDS011;4094;49.948;11.574;2023-06-10T08:29:46;3.80;;;3.50;;
8102;SDS011;4094;49.948;11.574;2023-06-10T08:32:15;3.73;;;3.40;;
8102;SDS011;4094;49.948;11.574;2023-06-10T08:34:46;3.30;;;3.10;;
8102;SDS011;4094;49.948;11.574;2023-06-10T08:37:17;3.70;;;3.40;;
8102;SDS011;4094;49.948;11.574;2023-06-10T08:39:46;3.90;;;3.60;;
8102;SDS011;4094;49.948;11.574;2023-06-10T08:42:18;4.50;;;3.60;;
8102;SDS011;4094;49.948;11.574;2023-06-10T08:44:53;4.13;;;3.67;;
8102;SDS011;4094;49.948;11.574;2023-06-10T08:47:23;4.30;;;3.60;;
8102;SDS011;4094;49.948;11.574;2023-06-10T08:49:55;4.40;;;3.40;;
8102;SDS011;4094;49.948;11.574;2023-06-10T08:52:33;6.73;;;3.93;;
8102;SDS011;4094;49.948;11.574;2023-06-10T08:55:12;4.47;;;3.43;;
8102;SDS011;4094;49.948;11.574;2023-06-10T08:57:50;4.27;;;3.87;;
8102;SDS011;4094;49.948;11.574;2023-06-10T09:00:20;3.73;;;3.40;;
8102;SDS011;4094;49.948;11.574;2023-06-10T09:02:50;3.50;;;3.30;;
8102;SDS011;4094;49.948;11.574;2023-06-10T09:05:20;3.73;;;3.43;;
8102;SDS011;4094;49.948;11.574;2023-06-10T09:07:52;3.80;;;3.50;;
8102;SDS011;4094;49.948;11.574;2023-06-10T09:10:22;4.27;;;3.33;;
8102;SDS011;4094;49.948;11.574;2023-06-10T09:12:52;3.67;;;3.37;;
8102;SDS011;4094;49.948;11.574;2023-06-10T09:15:22;3.80;;;3.50;;
8102;SDS011;4094;49.948;11.574;2023-06-10T09:17:51;3.80;;;3.50;;
8102;SDS011;4094;49.948;11.574;2023-06-10T09:20:20;3.60;;;3.30;;
8102;SDS011;4094;49.948;11.574;2023-06-10T09:22:49;3.33;;;3.03;;
8102;SDS011;4094;49.948;11.574;2023-06-10T09:25:20;3.63;;;3.33;;
8102;SDS011;4094;49.948;11.574;2023-06-10T09:28:04;4.10;;;3.40;;
8102;SDS011;4094;49.948;11.574;2023-06-10T09:30:40;3.67;;;3.40;;
8102;SDS011;4094;49.948;11.574;2023-06-10T09:33:11;3.30;;;2.87;;
8102;SDS011;4094;49.948;11.574;2023-06-10T09:35:46;3.93;;;3.63;;
8102;SDS011;4094;49.948;11.574;2023-06-10T09:38:19;3.63;;;3.33;;
8102;SDS011;4094;49.948;11.574;2023-06-10T09:40:51;3.50;;;3.20;;
8102;SDS011;4094;49.948;11.574;2023-06-10T09:43:21;3.40;;;3.20;;
8102;SDS011;4094;49.948;11.574;2023-06-10T09:45:50;3.47;;;3.17;;
8102;SDS011;4094;49.948;11.574;2023-06-10T09:48:21;3.87;;;3.47;;
8102;SDS011;4094;49.948;11.574;2023-06-10T09:50:51;3.77;;;3.47;;
8102;SDS011;4094;49.948;11.574;2023-06-10T09:53:20;3.70;;;3.40;;
8102;SDS011;4094;49.948;11.574;2023-06-10T09:55:51;3.23;;;3.00;;
8102;SDS011;4094;49.948;11.574;2023-06-10T09:58:33;5.60;;;3.53;;
8102;SDS011;4094;49.948;11.574;2023-06-10T10:01:08;3.77;;;3.50;;
8102;SDS011;4094;49.948;11.574;2023-06-10T10:03:42;4.67;;;3.80;;
8102;SDS011;4094;49.948;11.574;2023-06-10T10:06:16;3.90;;;3.60;;
8102;SDS011;4094;49.948;11.574;2023-06-10T10:08:46;4.07;;;3.77;;
8102;SDS011;4094;49.948;11.574;2023-06-10T10:11:19;3.80;;;3.50;;
8102;SDS011;4094;49.948;11.574;2023-06-10T10:13:49;3.97;;;3.27;;
8102;SDS011;4094;49.948;11.574;2023-06-10T10:16:20;4.70;;;3.40;;
8102;SDS011;4094;49.948;11.574;2023-06-10T10:18:53;3.80;;;3.50;;
8102;SDS011;4094;49.948;11.574;2023-06-10T10:21:24;3.80;;;3.50;;
8102;SDS011;4094;49.948;11.574;2023-06-10T10:23:58;3.93;;;3.40;;
8102;SDS011;4094;49.948;11.574;2023-06-10T10:26:32;4.10;;;3.70;;
8102;SDS011;4094;49.948;11.574;2023-06-10T10:29:05;3.73;;;3.40;;
8102;SDS011;4094;49.948;11.574;2023-06-10T10:31:39;3.73;;;3.40;;
8102;SDS011;4094;49.948;11.574;2023-06-10T10:34:13;4.07;;;3.77;;
8102;SDS011;4094;49.948;11.574;2023-06-10T10:36:45;4.03;;;3.63;;
8102;SDS011;4094;49.948;11.574;2023-06-10T10:39:15;3.97;;;3.67;;
8102;SDS011;4094;49.948;11.574;2023-06-10T10:41:46;4.50;;;3.57;;
8102;SDS011;4094;49.948;11.574;2023-06-10T10:44:16;3.70;;;3.40;;
8102;SDS011;4094;49.948;11.574;2023-06-10T10:46:49;4.13;;;3.80;;
8102;SDS011;4094;49.948;11.574;2023-06-10T10:49:19;4.13;;;3.83;;
8102;SDS011;4094;49.948;11.574;2023-06-10T10:52:10;3.90;;;3.60;;
8102;SDS011;4094;49.948;11.574;2023-06-10T10:54:50;3.90;;;3.60;;
8102;SDS011;4094;49.948;11.574;2023-06-10T10:57:28;3.73;;;3.43;;
8102;SDS011;4094;49.948;11.574;2023-06-10T10:59:58;4.20;;;3.87;;
8102;SDS011;4094;49.948;11.574;2023-06-10T11:02:34;5.50;;;3.60;;
8102;SDS011;4094;49.948;11.574;2023-06-10T11:05:06;4.67;;;3.73;;
8102;SDS011;4094;49.948;11.574;2023-06-10T11:07:37;3.77;;;3.17;;
8102;SDS011;4094;49.948;11.574;2023-06-10T11:10:06;3.90;;;3.53;;
8102;SDS011;4094;49.948;11.574;2023-06-10T11:12:51;4.80;;;3.40;;
8102;SDS011;4094;49.948;11.574;2023-06-10T11:15:22;3.70;;;3.40;;
8102;SDS011;4094;49.948;11.574;2023-06-10T11:18:06;3.23;;;3.00;;
8102;SDS011;4094;49.948;11.574;2023-06-10T11:20:56;3.57;;;3.27;;
8102;SDS011;4094;49.948;11.574;2023-06-10T11:23:32;3.60;;;3.30;;
8102;SDS011;4094;49.948;11.574;2023-06-10T11:26:16;3.70;;;3.00;;
8102;SDS011;4094;49.948;11.574;2023-06-10T11:29:07;4.63;;;3.57;;
8102;SDS011;4094;49.948;11.574;2023-06-10T11:31:41;4.77;;;3.60;;
8102;SDS011;4094;49.948;11.574;2023-06-10T11:34:12;3.77;;;3.47;;
8102;SDS011;4094;49.948;11.574;2023-06-10T11:36:42;3.60;;;3.30;;
8102;SDS011;4094;49.948;11.574;2023-06-10T11:39:13;3.77;;;3.47;;
8102;SDS011;4094;49.948;11.574;2023-06-10T11:41:42;3.67;;;3.30;;
8102;SDS011;4094;49.948;11.574;2023-06-10T11:44:13;4.37;;;3.53;;
8102;SDS011;4094;49.948;11.574;2023-06-10T11:46:47;3.77;;;3.47;;
8102;SDS011;4094;49.948;11.574;2023-06-10T11:49:17;3.30;;;3.10;;
8102;SDS011;4094;49.948;11.574;2023-06-10T11:51:48;3.63;;;3.07;;
8102;SDS011;4094;49.948;11.574;2023-06-10T11:54:19;3.20;;;3.00;;
8102;SDS011;4094;49.948;11.574;2023-06-10T11:56:49;3.47;;;3.17;;
8102;SDS011;4094;49.948;11.574;2023-06-10T11:59:21;2.97;;;2.77;;
8102;SDS011;4094;49.948;11.574;2023-06-10T12:01:56;3.63;;;3.20;;
8102;SDS011;4094;49.948;11.574;2023-06-10T12:04:25;3.53;;;2.90;;
8102;SDS011;4094;49.948;11.574;2023-06-10T12:06:56;3.30;;;2.40;;
8102;SDS011;4094;49.948;11.574;2023-06-10T12:09:26;2.50;;;2.30;;
8102;SDS011;4094;49.948;11.574;2023-06-10T12:11:57;2.53;;;2.33;;
8102;SDS011;4094;49.948;11.574;2023-06-10T12:17:35;2.77;;;2.57;;
8102;SDS011;4094;49.948;11.574;2023-06-10T12:20:06;2.70;;;2.50;;
8102;SDS011;4094;49.948;11.574;2023-06-10T12:22:37;3.13;;;2.60;;
8102;SDS011;4094;49.948;11.574;2023-06-10T12:25:07;2.67;;;2.47;;
8102;SDS011;4094;49.948;11.574;2023-06-10T12:27:41;2.80;;;2.23;;
8102;SDS011;4094;49.948;11.574;2023-06-10T12:30:22;3.20;;;2.40;;
8102;SDS011;4094;49.948;11.574;2023-06-10T12:32:53;2.60;;;2.40;;
8102;SDS011;4094;49.948;11.574;2023-06-10T12:35:25;3.13;;;2.53;;
8102;SDS011;4094;49.948;11.574;2023-06-10T12:37:56;2.40;;;2.20;;
8102;SDS011;4094;49.948;11.574;2023-06-10T12:40:28;2.93;;;2.73;;
8102;SDS011;4094;49.948;11.574;2023-06-10T12:42:59;2.53;;;2.20;;
8102;SDS011;4094;49.948;11.574;2023-06-10T12:45:30;2.90;;;2.70;;
8102;SDS011;4094;49.948;11.574;2023-06-10T12:48:04;3.10;;;2.83;;
8102;SDS011;4094;49.948;11.574;2023-06-10T12:50:40;4.20;;;3.40;;
8102;SDS011;4094;49.948;11.574;2023-06-10T12:53:11;3.20;;;3.00;;
8102;SDS011;4094;49.948;11.574;2023-06-10T12:55:40;3.13;;;2.87;;
8102;SDS011;4094;49.948;11.574;2023-06-10T12:58:09;3.30;;;3.10;;
8102;SDS011;4094;49.948;11.574;2023-06-10T13:00:40;5.13;;;3.70;;
8102;SDS011;4094;49.948;11.574;2023-06-10T13:03:09;3.70;;;3.40;;
8102;SDS011;4094;49.948;11.574;2023-06-10T13:05:39;4.57;;;4.17;;
8102;SDS011;4094;49.948;11.574;2023-06-10T13:08:08;6.10;;;4.90;;
8102;SDS011;4094;49.948;11.574;2023-06-10T13:10:38;8.87;;;5.60;;
8102;SDS011;4094;49.948;11.574;2023-06-10T13:13:07;6.20;;;5.60;;
8102;SDS011;4094;49.948;11.574;2023-06-10T13:15:37;6.23;;;5.63;;
8102;SDS011;4094;49.948;11.574;2023-06-10T13:18:11;8.33;;;7.33;;
8102;SDS011;4094;49.948;11.574;2023-06-10T13:20:41;7.17;;;6.47;;
8102;SDS011;4094;49.948;11.574;2023-06-10T13:23:10;8.47;;;7.00;;
8102;SDS011;4094;49.948;11.574;2023-06-10T13:25:39;7.17;;;6.40;;
8102;SDS011;4094;49.948;11.574;2023-06-10T13:28:11;6.97;;;6.30;;
8102;SDS011;4094;49.948;11.574;2023-06-10T13:30:40;7.20;;;6.50;;
8102;SDS011;4094;49.948;11.574;2023-06-10T13:33:09;7.70;;;6.97;;
8102;SDS011;4094;49.948;11.574;2023-06-10T13:35:40;7.37;;;6.53;;
8102;SDS011;4094;49.948;11.574;2023-06-10T13:38:09;7.60;;;6.90;;
8102;SDS011;4094;49.948;11.574;2023-06-10T13:40:39;7.17;;;6.57;;
8102;SDS011;4094;49.948;11.574;2023-06-10T13:43:08;7.03;;;6.37;;
8102;SDS011;4094;49.948;11.574;2023-06-10T13:45:37;7.50;;;6.67;;
8102;SDS011;4094;49.948;11.574;2023-06-10T13:48:07;7.60;;;7.00;;
8102;SDS011;4094;49.948;11.574;2023-06-10T13:50:40;6.63;;;5.90;;
8102;SDS011;4094;49.948;11.574;2023-06-10T13:53:12;7.10;;;5.87;;
8102;SDS011;4094;49.948;11.574;2023-06-10T13:55:42;6.80;;;6.20;;
8102;SDS011;4094;49.948;11.574;2023-06-10T13:58:11;7.17;;;6.40;;
8102;SDS011;4094;49.948;11.574;2023-06-10T14:00:40;6.73;;;6.13;;
8102;SDS011;4094;49.948;11.574;2023-06-10T14:03:09;6.77;;;6.00;;
8102;SDS011;4094;49.948;11.574;2023-06-10T14:05:40;6.63;;;6.03;;
8102;SDS011;4094;49.948;11.574;2023-06-10T14:08:09;7.43;;;6.83;;
8102;SDS011;4094;49.948;11.574;2023-06-10T14:10:39;7.60;;;7.00;;
8102;SDS011;4094;49.948;11.574;2023-06-10T14:13:08;6.67;;;6.17;;
8102;SDS011;4094;49.948;11.574;2023-06-10T14:15:37;7.07;;;6.33;;
8102;SDS011;4094;49.948;11.574;2023-06-10T14:18:06;7.10;;;6.43;;
8102;SDS011;4094;49.948;11.574;2023-06-10T14:20:36;7.70;;;6.80;;
8102;SDS011;4094;49.948;11.574;2023-06-10T14:23:09;12.03;;;6.80;;
8102;SDS011;4094;49.948;11.574;2023-06-10T14:25:38;8.17;;;7.00;;
8102;SDS011;4094;49.948;11.574;2023-06-10T14:28:07;13.03;;;7.13;;
8102;SDS011;4094;49.948;11.574;2023-06-10T14:30:36;7.63;;;6.27;;
8102;SDS011;4094;49.948;11.574;2023-06-10T14:33:06;7.00;;;6.30;;
8102;SDS011;4094;49.948;11.574;2023-06-10T14:35:35;7.30;;;6.23;;
8102;SDS011;4094;49.948;11.574;2023-06-10T14:38:04;7.20;;;6.50;;
8102;SDS011;4094;49.948;11.574;2023-06-10T14:40:36;7.60;;;6.67;;
8102;SDS011;4094;49.948;11.574;2023-06-10T14:43:05;9.17;;;6.77;;
8102;SDS011;4094;49.948;11.574;2023-06-10T14:45:37;7.63;;;6.67;;
8102;SDS011;4094;49.948;11.574;2023-06-10T14:48:07;7.67;;;6.97;;
8102;SDS011;4094;49.948;11.574;2023-06-10T14:50:37;7.80;;;6.47;;
8102;SDS011;4094;49.948;11.574;2023-06-10T14:53:07;8.57;;;7.23;;
8102;SDS011;4094;49.948;11.574;2023-06-10T14:55:38;10.20;;;6.93;;
8102;SDS011;4094;49.948;11.574;2023-06-10T14:58:07;10.80;;;7.40;;
8102;SDS011;4094;49.948;11.574;2023-06-10T15:00:36;8.83;;;7.17;;
8102;SDS011;4094;49.948;11.574;2023-06-10T15:03:05;9.27;;;8.30;;
8102;SDS011;4094;49.948;11.574;2023-06-10T15:05:34;10.27;;;8.53;;
8102;SDS011;4094;49.948;11.574;2023-06-10T15:08:04;10.20;;;7.83;;
8102;SDS011;4094;49.948;11.574;2023-06-10T15:10:34;8.43;;;7.77;;
8102;SDS011;4094;49.948;11.574;2023-06-10T15:13:04;8.70;;;7.80;;
8102;SDS011;4094;49.948;11.574;2023-06-10T15:15:33;8.77;;;7.97;;
8102;SDS011;4094;49.948;11.574;2023-06-10T15:18:03;9.37;;;8.13;;
8102;SDS011;4094;49.948;11.574;2023-06-10T15:20:32;10.27;;;8.27;;
8102;SDS011;4094;49.948;11.574;2023-06-10T15:23:01;8.67;;;7.50;;
8102;SDS011;4094;49.948;11.574;2023-06-10T15:25:31;9.07;;;8.13;;
8102;SDS011;4094;49.948;11.574;2023-06-10T15:28:00;8.13;;;7.43;;